Time;durP1;ratioP1;P1;durP2;ratioP2;P2;SDS_P1;SDS_P2;PMS_P1;PMS_P2;Temp;Humidity;BMP_temperature;BMP_pressure;BME280_temperature;BME280_humidity;BME280_pressure;Samples;Min_cycle;Max_cycle;Signal;HPM_P1;HPM_P2
2021/04/18 00:02:17;;;;;;;0.10;0.10;;;5.60;98.30;;;;;;4990938;28;20030;-84
2021/04/18 00:04:43;;;;;;;0.20;0.20;;;5.50;98.30;;;;;;5000631;28;20034;-84
2021/04/18 00:07:08;;;;;;;0.32;0.32;;;5.40;99.00;;;;;;4996166;28;20080;-85
2021/04/18 00:09:34;;;;;;;0.38;0.38;;;5.40;98.70;;;;;;5009453;28;20481;-85
2021/04/18 00:12:00;;;;;;;0.20;0.20;;;5.30;99.00;;;;;;5010339;28;20029;-85
2021/04/18 00:14:26;;;;;;;0.43;0.43;;;5.30;99.10;;;;;;5006098;28;20033;-85
2021/04/18 00:16:53;;;;;;;0.30;0.30;;;5.40;99.10;;;;;;5013781;28;20030;-85
2021/04/18 00:19:19;;;;;;;;;;;5.40;98.70;;;;;;4993123;28;20034;-85
2021/04/18 00:21:44;;;;;;;0.83;0.83;;;5.40;99.00;;;;;;4999227;28;19932;-85
2021/04/18 00:24:11;;;;;;;0.10;0.10;;;5.40;99.40;;;;;;5019897;28;20034;-85
2021/04/18 00:26:36;;;;;;;0.55;0.55;;;5.10;99.80;;;;;;4990383;28;20482;-85
2021/04/18 00:29:02;;;;;;;0.43;0.43;;;5.00;99.70;;;;;;5016759;28;20121;-84
2021/04/18 00:31:28;;;;;;;0.10;0.10;;;5.10;99.90;;;;;;4999654;28;20034;-85
2021/04/18 00:33:54;;;;;;;0.20;0.20;;;5.10;99.90;;;;;;4994133;28;20042;-84
2021/04/18 00:36:20;;;;;;;0.22;0.22;;;5.00;99.90;;;;;;5008812;28;20038;-84
2021/04/18 00:38:45;;;;;;;0.30;0.30;;;5.00;99.90;;;;;;4995604;28;20022;-84
2021/04/18 00:41:11;;;;;;;0.20;0.20;;;5.00;99.90;;;;;;5022263;28;20030;-83
2021/04/18 00:43:41;;;;;;;0.10;0.10;;;5.00;99.90;;;;;;5006941;28;20025;-84
2021/04/18 00:46:08;;;;;;;0.30;0.30;;;5.00;99.90;;;;;;5007590;28;20022;-85
2021/04/18 00:48:38;;;;;;;0.28;0.28;;;5.00;99.90;;;;;;5001470;28;20026;-85
2021/04/18 00:51:04;;;;;;;0.38;0.38;;;5.00;99.90;;;;;;4997434;28;20083;-84
2021/04/18 00:53:30;;;;;;;0.30;0.30;;;5.10;99.90;;;;;;4996898;28;20062;-85
2021/04/18 00:55:56;;;;;;;1.50;0.25;;;5.20;99.90;;;;;;4990602;28;20073;-85
2021/04/18 00:58:22;;;;;;;0.52;0.52;;;5.10;99.90;;;;;;5001283;28;20029;-85
2021/04/18 01:00:47;;;;;;;0.20;0.20;;;5.10;99.90;;;;;;5000096;28;20045;-84
2021/04/18 01:03:13;;;;;;;0.40;0.40;;;5.30;99.90;;;;;;5012711;28;20053;-85
2021/04/18 01:05:39;;;;;;;0.93;0.80;;;5.10;99.90;;;;;;5014024;28;20038;-85
2021/04/18 01:08:09;;;;;;;0.10;0.10;;;5.10;99.90;;;;;;4993844;28;20022;-84
2021/04/18 01:10:35;;;;;;;0.20;0.20;;;5.00;99.90;;;;;;4994474;28;20041;-84
2021/04/18 01:13:01;;;;;;;0.80;0.80;;;5.20;99.90;;;;;;5000687;28;20033;-86
2021/04/18 01:15:26;;;;;;;0.20;0.20;;;4.90;99.90;;;;;;4998105;28;20038;-86
2021/04/18 01:17:52;;;;;;;0.10;0.10;;;4.80;99.90;;;;;;5013855;28;20117;-86
2021/04/18 01:20:21;;;;;;;0.17;0.17;;;4.90;99.90;;;;;;4991156;28;20042;-86
2021/04/18 01:22:51;;;;;;;0.68;0.68;;;5.00;99.90;;;;;;5021323;28;20054;-86
2021/04/18 01:25:18;;;;;;;0.40;0.40;;;4.90;99.90;;;;;;5005281;28;20109;-85
2021/04/18 01:27:46;;;;;;;0.65;0.65;;;5.00;99.90;;;;;;5000445;28;20593;-87
2021/04/18 01:30:20;;;;;;;0.25;0.25;;;4.70;99.90;;;;;;5023257;28;20531;-86
2021/04/18 01:32:50;;;;;;;0.30;0.30;;;4.90;99.90;;;;;;4998336;28;20766;-85
2021/04/18 01:35:16;;;;;;;0.47;0.32;;;4.70;99.90;;;;;;5002321;28;20049;-85
2021/04/18 01:37:43;;;;;;;0.15;0.15;;;5.10;99.90;;;;;;5008316;28;20080;-85
2021/04/18 01:40:13;;;;;;;0.10;0.10;;;5.30;99.90;;;;;;5002426;28;20038;-85
2021/04/18 01:42:40;;;;;;;0.13;0.13;;;5.40;99.90;;;;;;5008601;28;20025;-85
2021/04/18 01:45:07;;;;;;;0.35;0.35;;;5.60;99.90;;;;;;5001056;28;20057;-85
2021/04/18 01:47:33;;;;;;;0.20;0.20;;;5.40;99.90;;;;;;4999997;28;20034;-85
2021/04/18 01:49:59;;;;;;;0.20;0.20;;;5.70;99.90;;;;;;4993223;28;20041;-85
2021/04/18 01:52:25;;;;;;;0.52;0.52;;;5.70;99.90;;;;;;5004669;28;20046;-85
2021/04/18 01:54:52;;;;;;;0.38;0.38;;;5.60;99.90;;;;;;4998975;28;20508;-85
2021/04/18 01:57:18;;;;;;;0.30;0.30;;;5.70;99.90;;;;;;4995163;28;20114;-85
2021/04/18 01:59:44;;;;;;;0.20;0.20;;;5.80;99.90;;;;;;4989756;28;20105;-85
2021/04/18 02:02:12;;;;;;;0.43;0.43;;;5.70;99.90;;;;;;4991739;28;20093;-84
2021/04/18 02:04:38;;;;;;;0.93;0.82;;;5.50;99.90;;;;;;4997269;28;20491;-84
2021/04/18 02:07:05;;;;;;;0.30;0.30;;;5.60;99.90;;;;;;5000354;28;20022;-85
2021/04/18 02:09:32;;;;;;;0.85;0.85;;;5.50;99.90;;;;;;5001265;28;20047;-85
2021/04/18 02:11:58;;;;;;;0.17;0.17;;;5.50;99.90;;;;;;5000309;28;20034;-85
2021/04/18 02:14:25;;;;;;;0.30;0.30;;;5.20;99.90;;;;;;5000142;28;20057;-83
2021/04/18 02:16:51;;;;;;;0.20;0.20;;;5.10;99.90;;;;;;4997458;28;20089;-84
2021/04/18 02:19:17;;;;;;;0.10;0.10;;;4.90;99.90;;;;;;4993467;28;20137;-85
2021/04/18 02:21:43;;;;;;;0.10;0.10;;;4.90;99.90;;;;;;5003421;28;20050;-84
2021/04/18 02:24:09;;;;;;;0.38;0.35;;;4.80;99.90;;;;;;5015299;28;20030;-84
2021/04/18 02:26:35;;;;;;;0.27;0.27;;;4.70;99.90;;;;;;4999763;28;20100;-84
2021/04/18 02:29:01;;;;;;;1.27;1.20;;;4.70;99.90;;;;;;5002215;28;20109;-84
2021/04/18 02:31:27;;;;;;;0.20;0.20;;;4.60;99.90;;;;;;5002392;28;20022;-84
2021/04/18 02:33:53;;;;;;;0.10;0.10;;;4.60;99.90;;;;;;4997774;28;20023;-84
2021/04/18 02:36:19;;;;;;;0.30;0.30;;;4.50;99.90;;;;;;5007032;28;20389;-84
2021/04/18 02:38:44;;;;;;;0.10;0.10;;;4.50;99.90;;;;;;4998476;28;20549;-84
2021/04/18 02:41:10;;;;;;;0.55;0.55;;;4.30;99.90;;;;;;4993611;28;20541;-84
2021/04/18 02:43:36;;;;;;;0.73;0.73;;;4.20;99.90;;;;;;5000724;28;20778;-84
2021/04/18 02:46:02;;;;;;;0.20;0.20;;;4.30;99.90;;;;;;5007094;28;20056;-83
2021/04/18 02:48:28;;;;;;;0.20;0.20;;;4.20;99.90;;;;;;5004587;28;20021;-83
2021/04/18 02:50:53;;;;;;;0.50;0.50;;;4.20;99.90;;;;;;4996235;28;20042;-84
2021/04/18 02:53:19;;;;;;;0.10;0.10;;;4.10;99.90;;;;;;5006518;28;20113;-84
2021/04/18 02:55:45;;;;;;;0.10;0.10;;;3.90;99.90;;;;;;5001478;28;20030;-84
2021/04/18 02:58:11;;;;;;;1.17;0.63;;;3.80;99.90;;;;;;5002421;28;20120;-84
2021/04/18 03:00:37;;;;;;;0.10;0.10;;;4.00;99.90;;;;;;4999446;28;20041;-84
2021/04/18 03:03:03;;;;;;;0.75;0.68;;;4.00;99.90;;;;;;5002447;28;20111;-84
2021/04/18 03:05:29;;;;;;;0.20;0.20;;;4.00;99.90;;;;;;4999643;28;20501;-85
2021/04/18 03:07:55;;;;;;;0.15;0.15;;;4.10;99.90;;;;;;5011030;28;20057;-85
2021/04/18 03:10:21;;;;;;;0.40;0.40;;;4.00;99.90;;;;;;5000974;28;20063;-85
2021/04/18 03:12:47;;;;;;;0.30;0.30;;;4.10;99.90;;;;;;4998235;28;20025;-85
2021/04/18 03:15:13;;;;;;;0.10;0.10;;;4.00;99.90;;;;;;4996321;28;20026;-86
2021/04/18 03:17:39;;;;;;;0.10;0.10;;;3.80;99.90;;;;;;5006370;28;20026;-86
2021/04/18 03:20:05;;;;;;;0.20;0.20;;;3.40;99.90;;;;;;5010003;28;20287;-86
2021/04/18 03:22:31;;;;;;;0.13;0.13;;;3.70;99.90;;;;;;5001976;28;20417;-85
2021/04/18 03:24:57;;;;;;;0.52;0.52;;;3.60;99.90;;;;;;4997073;28;20084;-84
2021/04/18 03:27:23;;;;;;;0.10;0.10;;;3.80;99.90;;;;;;5009124;28;20535;-84
2021/04/18 03:29:49;;;;;;;0.10;0.10;;;3.70;99.90;;;;;;5006932;28;20026;-84
2021/04/18 03:32:14;;;;;;;0.30;0.30;;;3.40;99.90;;;;;;5007711;28;20095;-84
2021/04/18 03:34:40;;;;;;;0.10;0.10;;;3.50;99.90;;;;;;5001660;28;20034;-84
2021/04/18 03:37:06;;;;;;;0.22;0.22;;;3.40;99.90;;;;;;4999714;28;20506;-84
2021/04/18 03:39:32;;;;;;;0.30;0.30;;;3.40;99.90;;;;;;4997276;28;20041;-84
2021/04/18 03:41:58;;;;;;;0.20;0.20;;;3.40;99.90;;;;;;4999663;28;20034;-84
2021/04/18 03:44:24;;;;;;;0.10;0.10;;;3.40;99.90;;;;;;4992379;28;20037;-84
2021/04/18 03:46:50;;;;;;;1.20;0.73;;;3.40;99.90;;;;;;4996930;28;20026;-84
2021/04/18 03:49:16;;;;;;;0.20;0.20;;;3.50;99.90;;;;;;5002453;28;20018;-84
2021/04/18 03:51:42;;;;;;;0.15;0.15;;;3.40;99.90;;;;;;5007772;28;20048;-84
2021/04/18 03:54:08;;;;;;;0.28;0.28;;;3.30;99.90;;;;;;4991806;28;20454;-84
2021/04/18 03:56:33;;;;;;;0.10;0.10;;;3.50;99.90;;;;;;4995285;28;20088;-84
2021/04/18 03:58:59;;;;;;;0.10;0.10;;;3.40;99.90;;;;;;4992401;28;20767;-83
2021/04/18 04:01:25;;;;;;;0.50;0.50;;;3.10;99.90;;;;;;5001682;28;20506;-83
2021/04/18 04:03:51;;;;;;;0.45;0.45;;;3.20;99.90;;;;;;5003837;28;20036;-83
2021/04/18 04:06:16;;;;;;;0.50;0.50;;;3.20;99.90;;;;;;5000556;28;20053;-84
2021/04/18 04:08:42;;;;;;;0.17;0.17;;;3.20;99.90;;;;;;4995298;28;20721;-85
2021/04/18 04:11:08;;;;;;;0.15;0.15;;;3.10;99.90;;;;;;5000411;28;20544;-85
2021/04/18 04:13:33;;;;;;;0.20;0.20;;;3.00;99.90;;;;;;4993354;28;20045;-86
2021/04/18 04:16:00;;;;;;;0.20;0.20;;;2.90;99.90;;;;;;5000859;28;20115;-86
2021/04/18 04:18:25;;;;;;;0.33;0.33;;;2.70;99.90;;;;;;4997755;28;20030;-86
2021/04/18 04:20:51;;;;;;;0.73;0.73;;;2.70;99.90;;;;;;5003439;28;20668;-84
2021/04/18 04:23:17;;;;;;;0.20;0.20;;;2.70;99.90;;;;;;5002588;28;20697;-85
2021/04/18 04:25:43;;;;;;;1.23;0.90;;;2.70;99.90;;;;;;4994008;28;20622;-85
2021/04/18 04:28:09;;;;;;;0.28;0.28;;;2.70;99.90;;;;;;5003175;28;20113;-86
2021/04/18 04:30:35;;;;;;;0.22;0.22;;;2.70;99.90;;;;;;5009846;28;20125;-86
2021/04/18 04:33:01;;;;;;;0.30;0.30;;;2.80;99.90;;;;;;4993082;28;20026;-85
2021/04/18 04:35:27;;;;;;;0.20;0.20;;;2.80;99.90;;;;;;5003466;28;20026;-85
2021/04/18 04:37:52;;;;;;;0.25;0.25;;;2.70;99.90;;;;;;5006641;28;20033;-85
2021/04/18 04:40:19;;;;;;;0.25;0.25;;;2.80;99.90;;;;;;5001171;28;20494;-85
2021/04/18 04:42:45;;;;;;;0.52;0.52;;;2.70;99.90;;;;;;5002824;28;20026;-85
2021/04/18 04:45:11;;;;;;;0.20;0.20;;;2.60;99.90;;;;;;5005304;28;20034;-85
2021/04/18 04:47:37;;;;;;;0.10;0.10;;;2.60;99.90;;;;;;5009727;28;20273;-85
2021/04/18 04:50:03;;;;;;;0.28;0.28;;;2.40;99.90;;;;;;5003087;28;20509;-85
2021/04/18 04:52:29;;;;;;;0.40;0.40;;;2.30;99.90;;;;;;5005541;28;20030;-86
2021/04/18 04:54:55;;;;;;;0.30;0.30;;;2.30;99.90;;;;;;4996888;28;20508;-85
2021/04/18 04:57:21;;;;;;;0.20;0.20;;;2.40;99.90;;;;;;4992312;28;20077;-85
2021/04/18 04:59:47;;;;;;;0.65;0.57;;;2.60;99.90;;;;;;4997651;28;20084;-84
2021/04/18 05:02:13;;;;;;;0.20;0.20;;;2.80;99.90;;;;;;4999478;28;20038;-84
2021/04/18 05:04:39;;;;;;;0.10;0.10;;;2.80;99.90;;;;;;4993396;28;20884;-84
2021/04/18 05:07:04;;;;;;;0.20;0.20;;;3.00;99.90;;;;;;4998016;28;20469;-84
2021/04/18 05:09:30;;;;;;;0.17;0.17;;;2.70;99.90;;;;;;4991292;28;20065;-84
2021/04/18 05:11:56;;;;;;;0.25;0.25;;;2.60;99.90;;;;;;5004870;28;20022;-85
2021/04/18 05:14:22;;;;;;;0.90;0.88;;;2.70;99.90;;;;;;4995774;28;20031;-85
2021/04/18 05:16:48;;;;;;;1.08;1.08;;;2.60;99.90;;;;;;5024427;28;20029;-84
2021/04/18 05:19:13;;;;;;;0.10;0.10;;;2.80;99.90;;;;;;4999509;28;20038;-84
2021/04/18 05:21:39;;;;;;;0.10;0.10;;;3.20;99.90;;;;;;5000124;28;20069;-84
2021/04/18 05:24:06;;;;;;;1.42;1.17;;;3.50;99.90;;;;;;5005044;28;20030;-84
2021/04/18 05:26:32;;;;;;;0.30;0.30;;;3.80;99.90;;;;;;5006902;28;20512;-84
2021/04/18 05:28:58;;;;;;;0.20;0.20;;;4.10;99.90;;;;;;4993524;28;20885;-84
2021/04/18 05:31:23;;;;;;;0.20;0.20;;;4.50;99.90;;;;;;4992133;28;20116;-85
2021/04/18 05:33:49;;;;;;;0.60;0.60;;;4.80;99.90;;;;;;5001511;28;20026;-84
2021/04/18 05:36:15;;;;;;;0.82;0.75;;;5.00;99.90;;;;;;4998921;28;20038;-84
2021/04/18 05:38:41;;;;;;;0.75;0.75;;;5.50;99.90;;;;;;5002318;28;20022;-84
2021/04/18 05:41:07;;;;;;;0.35;0.35;;;6.10;99.90;;;;;;4998535;28;20213;-83
2021/04/18 05:43:33;;;;;;;0.50;0.50;;;6.40;99.90;;;;;;4999409;28;20107;-84
2021/04/18 05:45:58;;;;;;;0.10;0.10;;;7.00;99.90;;;;;;5000363;28;20022;-84
2021/04/18 05:48:24;;;;;;;0.20;0.20;;;7.00;99.90;;;;;;5003156;28;20509;-85
2021/04/18 05:50:50;;;;;;;0.22;0.22;;;7.40;99.90;;;;;;5017134;28;20092;-84
2021/04/18 05:53:16;;;;;;;0.40;0.40;;;7.50;99.90;;;;;;4995171;28;20026;-85
2021/04/18 05:55:42;;;;;;;0.83;0.83;;;7.40;99.90;;;;;;5005055;28;20030;-84
2021/04/18 05:58:11;;;;;;;0.73;0.52;;;8.00;99.90;;;;;;4998671;28;20486;-85
2021/04/18 06:00:37;;;;;;;0.30;0.30;;;8.30;99.90;;;;;;4998448;28;20026;-85
2021/04/18 06:03:03;;;;;;;0.37;0.37;;;7.90;99.90;;;;;;5009100;28;20029;-84
2021/04/18 06:05:29;;;;;;;1.15;0.30;;;8.30;99.90;;;;;;5008298;28;20068;-84
2021/04/18 06:07:55;;;;;;;0.25;0.25;;;8.80;99.90;;;;;;5003035;28;20050;-85
2021/04/18 06:10:21;;;;;;;0.08;0.08;;;9.60;99.90;;;;;;4994350;28;20030;-85
2021/04/18 06:12:46;;;;;;;0.52;0.52;;;8.70;99.90;;;;;;5002978;28;20061;-83
2021/04/18 06:15:13;;;;;;;0.22;0.22;;;9.20;99.90;;;;;;5007798;28;20153;-84
2021/04/18 06:17:39;;;;;;;0.22;0.22;;;9.40;99.90;;;;;;5005211;28;20033;-84
2021/04/18 06:20:06;;;;;;;2.75;1.02;;;8.80;99.90;;;;;;5009341;28;20129;-84
2021/04/18 06:22:32;;;;;;;;;;;9.80;99.90;;;;;;5000644;28;20093;-85
2021/04/18 06:24:58;;;;;;;0.52;0.52;;;9.90;99.90;;;;;;4997556;28;20301;-85
2021/04/18 06:27:24;;;;;;;0.88;0.80;;;10.00;99.90;;;;;;4999382;28;20060;-85
2021/04/18 06:29:50;;;;;;;1.85;0.73;;;9.90;99.90;;;;;;4997385;28;20053;-85
2021/04/18 06:32:16;;;;;;;1.55;0.85;;;10.00;99.90;;;;;;4996614;28;20049;-84
2021/04/18 06:34:41;;;;;;;0.20;0.20;;;10.30;99.90;;;;;;5004739;28;20131;-85
2021/04/18 06:37:07;;;;;;;0.65;0.65;;;10.40;99.90;;;;;;5003655;28;20074;-86
2021/04/18 06:39:34;;;;;;;0.20;0.20;;;11.00;99.30;;;;;;5006402;28;20072;-86
2021/04/18 06:42:05;;;;;;;0.33;0.33;;;11.70;97.70;;;;;;5011636;28;20064;-84
2021/04/18 06:44:32;;;;;;;0.15;0.15;;;12.40;95.70;;;;;;4994630;28;20038;-84
2021/04/18 06:47:00;;;;;;;0.17;0.17;;;13.10;94.60;;;;;;5006512;28;20029;-84
2021/04/18 06:49:27;;;;;;;0.13;0.13;;;13.40;93.40;;;;;;4998947;28;20036;-84
2021/04/18 06:51:52;;;;;;;;;;;12.80;93.10;;;;;;4994314;28;20030;-84
2021/04/18 06:54:19;;;;;;;0.37;0.37;;;12.40;92.60;;;;;;5009579;28;20424;-85
2021/04/18 06:56:45;;;;;;;;;;;12.50;92.90;;;;;;5003303;28;20034;-85
2021/04/18 06:59:10;;;;;;;0.10;0.10;;;12.10;91.90;;;;;;5000769;28;19913;-85
2021/04/18 07:01:36;;;;;;;0.85;0.47;;;11.90;93.80;;;;;;5007255;28;20438;-85
2021/04/18 07:04:13;;;;;;;0.20;0.20;;;13.20;92.00;;;;;;5000799;28;20737;-84
2021/04/18 07:06:40;;;;;;;;;;;13.30;92.20;;;;;;5002414;28;20030;-84
2021/04/18 07:09:06;;;;;;;0.45;0.45;;;13.90;91.50;;;;;;5001399;28;19909;-83
2021/04/18 07:11:48;;;;;;;0.10;0.10;;;13.40;91.40;;;;;;5003923;28;20099;-84
2021/04/18 07:14:35;;;;;;;0.63;0.63;;;13.80;93.90;;;;;;5004546;28;20022;-83
2021/04/18 07:17:10;;;;;;;0.55;0.55;;;14.00;93.30;;;;;;5000021;28;20041;-83
2021/04/18 07:19:44;;;;;;;0.40;0.40;;;14.50;98.50;;;;;;4993851;28;20056;-84
2021/04/18 07:22:11;;;;;;;0.65;0.65;;;14.40;92.60;;;;;;5002973;28;20300;-84
2021/04/18 07:24:55;;;;;;;1.45;0.63;;;14.70;91.60;;;;;;4995785;28;20037;-81
2021/04/18 07:27:22;;;;;;;0.43;0.40;;;15.00;91.50;;;;;;4997627;28;20026;-84
2021/04/18 07:29:56;;;;;;;0.30;0.30;;;14.50;91.80;;;;;;5001757;28;20069;-85
2021/04/18 07:32:29;;;;;;;0.40;0.40;;;15.50;90.30;;;;;;4995346;28;20080;-84
2021/04/18 07:34:55;;;;;;;0.60;0.60;;;15.70;89.50;;;;;;5006652;28;20061;-84
2021/04/18 07:37:26;;;;;;;0.40;0.40;;;16.30;89.80;;;;;;4999907;28;20391;-82
2021/04/18 07:39:55;;;;;;;0.45;0.45;;;16.50;87.70;;;;;;5003011;28;20136;-82
2021/04/18 07:42:38;;;;;;;0.35;0.35;;;16.80;87.50;;;;;;5006574;28;20025;-85
2021/04/18 07:45:11;;;;;;;0.20;0.20;;;15.90;88.70;;;;;;4995488;28;20558;-85
2021/04/18 07:47:43;;;;;;;0.55;0.55;;;15.50;89.80;;;;;;4999010;28;20072;-85
2021/04/18 07:50:28;;;;;;;1.23;1.00;;;16.70;85.60;;;;;;4992659;28;20033;-85
2021/04/18 07:52:54;;;;;;;0.90;0.60;;;17.10;93.70;;;;;;4993912;28;20036;-86
2021/04/18 07:55:20;;;;;;;0.50;0.50;;;18.40;77.40;;;;;;4995271;28;20029;-85
2021/04/18 07:57:47;;;;;;;2.15;0.35;;;19.80;72.10;;;;;;4994884;28;20465;-85
2021/04/18 08:00:15;;;;;;;2.53;0.90;;;18.40;77.20;;;;;;4994754;28;20073;-85
2021/04/18 08:02:45;;;;;;;0.73;0.70;;;18.00;78.20;;;;;;5001664;28;20032;-84
2021/04/18 08:05:14;;;;;;;0.38;0.38;;;17.00;82.30;;;;;;4999299;28;20031;-85
2021/04/18 08:08:08;;;;;;;0.75;0.60;;;16.10;84.10;;;;;;4992232;28;20876;-85
2021/04/18 08:10:46;;;;;;;0.38;0.38;;;16.60;82.00;;;;;;5014853;28;20579;-85
2021/04/18 08:13:25;;;;;;;0.57;0.47;;;18.40;77.90;;;;;;5002270;28;20030;-85
2021/04/18 08:16:01;;;;;;;0.50;0.50;;;19.20;75.10;;;;;;4999119;28;20026;-83
2021/04/18 08:18:32;;;;;;;0.50;0.50;;;20.70;68.70;;;;;;4995849;28;20033;-83
2021/04/18 08:20:59;;;;;;;0.60;0.60;;;20.50;67.40;;;;;;5006743;28;20030;-83
2021/04/18 08:23:38;;;;;;;0.30;0.30;;;19.40;71.90;;;;;;4995329;28;20046;-84
2021/04/18 08:26:08;;;;;;;0.10;0.10;;;20.30;68.90;;;;;;4999816;28;20026;-83
2021/04/18 08:28:53;;;;;;;0.60;0.60;;;18.40;74.50;;;;;;4998244;28;20034;-83
2021/04/18 08:31:22;;;;;;;0.20;0.20;;;19.30;71.00;;;;;;5001146;28;20037;-83
2021/04/18 08:33:53;;;;;;;0.70;0.70;;;21.20;61.20;;;;;;5002414;28;20719;-83
2021/04/18 08:36:30;;;;;;;1.95;0.63;;;20.70;64.60;;;;;;5019373;28;20029;-82
2021/04/18 08:39:04;;;;;;;2.47;0.93;;;19.80;67.10;;;;;;5004988;28;20518;-84
2021/04/18 08:41:36;;;;;;;0.82;0.80;;;20.70;61.60;;;;;;5001209;28;20035;-83
2021/04/18 08:44:31;;;;;;;0.40;0.30;;;23.30;55.70;;;;;;4996378;28;20026;-84
2021/04/18 08:47:05;;;;;;;0.80;0.60;;;22.50;57.70;;;;;;4891472;29;20112;-84
2021/04/18 08:49:32;;;;;;;0.40;0.40;;;23.10;57.40;;;;;;4907752;29;20525;-84
2021/04/18 08:52:01;;;;;;;1.55;0.80;;;24.90;51.50;;;;;;4885622;29;20155;-84
2021/04/18 08:54:40;;;;;;;0.68;0.57;;;24.40;49.60;;;;;;4902618;29;20028;-84
2021/04/18 08:57:14;;;;;;;0.50;0.50;;;22.80;52.90;;;;;;4900039;29;20037;-84
2021/04/18 08:59:41;;;;;;;0.65;0.65;;;24.60;52.80;;;;;;4901317;29;20036;-84
2021/04/18 09:02:11;;;;;;;0.55;0.43;;;23.50;52.90;;;;;;4903504;29;20023;-85
2021/04/18 09:04:45;;;;;;;0.85;0.38;;;24.40;49.70;;;;;;4899381;29;20394;-84
2021/04/18 09:07:14;;;;;;;0.60;0.55;;;24.70;48.50;;;;;;4891049;29;20552;-84
2021/04/18 09:09:41;;;;;;;0.95;0.43;;;23.20;50.00;;;;;;4889368;29;20032;-85
2021/04/18 09:12:07;;;;;;;0.63;0.57;;;23.80;47.00;;;;;;4902525;29;20806;-85
2021/04/18 09:14:40;;;;;;;0.65;0.50;;;23.70;47.70;;;;;;4898815;29;20711;-84
2021/04/18 09:17:22;;;;;;;1.35;1.10;;;25.20;45.20;;;;;;4889912;29;20048;-85
2021/04/18 09:19:50;;;;;;;0.30;0.30;;;23.70;51.60;;;;;;4905666;29;20235;-83
2021/04/18 09:22:26;;;;;;;0.68;0.50;;;23.80;46.70;;;;;;4886355;29;20139;-85
2021/04/18 09:24:54;;;;;;;0.30;0.30;;;25.40;42.60;;;;;;4997863;28;20491;-84
2021/04/18 09:27:29;;;;;;;1.17;1.08;;;26.10;44.60;;;;;;4998191;28;20959;-85
2021/04/18 09:30:13;;;;;;;0.43;0.43;;;24.50;46.70;;;;;;4995899;28;20033;-86
2021/04/18 09:32:41;;;;;;;0.73;0.73;;;25.10;42.00;;;;;;4998907;28;20023;-83
2021/04/18 09:35:09;;;;;;;0.50;0.50;;;25.50;40.00;;;;;;4997727;28;20064;-84
2021/04/18 09:37:41;;;;;;;0.60;0.50;;;24.50;40.50;;;;;;4997066;28;20033;-84
2021/04/18 09:40:16;;;;;;;0.55;0.43;;;25.20;42.10;;;;;;4996888;28;20084;-84
2021/04/18 09:42:47;;;;;;;1.48;0.70;;;24.80;39.90;;;;;;4997843;28;20080;-84
2021/04/18 09:45:25;;;;;;;0.43;0.43;;;23.30;45.80;;;;;;5015837;28;20112;-83
2021/04/18 09:47:57;;;;;;;0.90;0.90;;;24.80;40.80;;;;;;5004649;28;20014;-84
2021/04/18 09:50:30;;;;;;;0.25;0.25;;;25.80;36.30;;;;;;4991339;28;20194;-85
2021/04/18 09:53:21;;;;;;;0.47;0.47;;;22.70;42.90;;;;;;4998854;28;20030;-84
2021/04/18 09:55:56;;;;;;;4.90;0.93;;;25.90;37.40;;;;;;5018286;28;20042;-84
2021/04/18 09:58:26;;;;;;;0.38;0.38;;;24.90;43.20;;;;;;4990883;28;20026;-85
2021/04/18 10:00:52;;;;;;;0.20;0.20;;;23.60;41.00;;;;;;5016259;28;20479;-85
2021/04/18 10:03:18;;;;;;;1.23;0.67;;;25.00;41.20;;;;;;5007444;28;20096;-83
2021/04/18 10:05:43;;;;;;;0.30;0.30;;;23.40;43.20;;;;;;5001103;28;20022;-83
2021/04/18 10:08:22;;;;;;;0.43;0.43;;;24.40;39.20;;;;;;4993698;28;20077;-85
2021/04/18 10:11:15;;;;;;;0.35;0.35;;;26.30;34.10;;;;;;4993558;28;20026;-86
2021/04/18 10:13:43;;;;;;;0.80;0.68;;;26.10;37.40;;;;;;4999926;28;20052;-86
2021/04/18 10:16:11;;;;;;;0.60;0.52;;;26.00;34.70;;;;;;5003619;28;20010;-86
2021/04/18 10:18:40;;;;;;;0.10;0.10;;;27.30;31.50;;;;;;5002398;28;20449;-86
2021/04/18 10:21:21;;;;;;;2.75;0.60;;;29.30;28.90;;;;;;4999657;28;20026;-88
2021/04/18 10:23:48;;;;;;;0.20;0.20;;;28.20;29.20;;;;;;5004269;28;20026;-86
2021/04/18 10:26:19;;;;;;;3.60;0.52;;;28.70;29.10;;;;;;4995339;28;20022;-88
2021/04/18 10:28:49;;;;;;;0.63;0.60;;;23.70;39.20;;;;;;5003805;28;20037;-86
2021/04/18 10:31:17;;;;;;;0.17;0.17;;;19.80;50.90;;;;;;5004424;28;20038;-86
2021/04/18 10:33:44;;;;;;;0.90;0.90;;;17.80;49.60;;;;;;4994209;28;20129;-86
2021/04/18 10:36:10;;;;;;;0.88;0.82;;;20.70;50.50;;;;;;5005122;28;20761;-86
2021/04/18 10:38:36;;;;;;;1.07;0.50;;;22.20;39.20;;;;;;4996899;28;20109;-86
2021/04/18 10:41:06;;;;;;;2.40;0.93;;;22.80;36.90;;;;;;4996943;28;20490;-85
2021/04/18 10:43:32;;;;;;;0.40;0.40;;;20.80;46.20;;;;;;5003376;28;20553;-86
2021/04/18 10:45:58;;;;;;;0.67;0.67;;;17.60;51.90;;;;;;4991760;28;20023;-86
2021/04/18 10:48:23;;;;;;;0.63;0.63;;;15.80;57.80;;;;;;5004400;28;20022;-86
2021/04/18 10:50:49;;;;;;;0.30;0.30;;;17.00;55.60;;;;;;5001333;28;20100;-85
2021/04/18 10:53:15;;;;;;;0.30;0.30;;;17.20;53.10;;;;;;5002396;28;20560;-85
2021/04/18 10:55:42;;;;;;;0.27;0.27;;;17.30;54.80;;;;;;5002565;28;20037;-87
2021/04/18 10:58:14;;;;;;;1.30;1.20;;;16.60;55.30;;;;;;5000652;28;20040;-87
2021/04/18 11:00:44;;;;;;;0.38;0.38;;;15.70;58.70;;;;;;4998018;28;20046;-87
2021/04/18 11:03:11;;;;;;;1.20;0.80;;;17.40;58.00;;;;;;4998488;28;20066;-89
2021/04/18 11:05:37;;;;;;;1.10;1.00;;;21.40;46.80;;;;;;5005561;28;20656;-89
2021/04/18 11:08:03;;;;;;;0.63;0.63;;;24.60;37.10;;;;;;5006262;28;20058;-88
2021/04/18 11:10:30;;;;;;;0.60;0.60;;;17.30;54.10;;;;;;5002110;28;20100;-86
2021/04/18 11:12:55;;;;;;;0.52;0.52;;;16.30;57.50;;;;;;5007877;28;20765;-86
2021/04/18 11:15:25;;;;;;;0.73;0.73;;;16.00;57.60;;;;;;5005757;28;20044;-89
2021/04/18 11:17:57;;;;;;;1.17;1.08;;;18.00;56.60;;;;;;5005497;28;20814;-87
2021/04/18 11:20:25;;;;;;;0.63;0.50;;;16.30;58.60;;;;;;5003124;28;20034;-88
2021/04/18 11:22:53;;;;;;;2.83;1.38;;;16.10;56.90;;;;;;5022575;28;20402;-88
2021/04/18 11:25:19;;;;;;;0.73;0.73;;;18.70;56.40;;;;;;5004015;28;20049;-88
2021/04/18 11:27:48;;;;;;;0.43;0.22;;;21.10;48.00;;;;;;5007569;28;20486;-87
2021/04/18 11:30:16;;;;;;;0.65;0.65;;;23.90;41.80;;;;;;4972695;28;20038;-87
2021/04/18 11:32:42;;;;;;;0.85;0.38;;;19.50;51.60;;;;;;5007530;28;20030;-87
2021/04/18 11:35:16;;;;;;;0.40;0.40;;;19.00;51.30;;;;;;5002559;28;20085;-84
2021/04/18 11:37:42;;;;;;;0.75;0.45;;;19.20;49.90;;;;;;4988075;28;20040;-84
2021/04/18 11:40:10;;;;;;;0.50;0.50;;;17.80;53.30;;;;;;4998065;28;20030;-84
2021/04/18 11:42:36;;;;;;;0.80;0.75;;;17.10;57.10;;;;;;5005367;28;20017;-85
2021/04/18 11:45:02;;;;;;;0.30;0.30;;;17.10;57.90;;;;;;5008866;28;20102;-88
2021/04/18 11:47:30;;;;;;;0.50;0.50;;;17.40;54.80;;;;;;5006716;28;20022;-88
2021/04/18 11:49:57;;;;;;;1.48;0.60;;;16.30;56.80;;;;;;5007967;28;20076;-88
2021/04/18 11:52:24;;;;;;;0.95;0.65;;;15.90;57.90;;;;;;5002694;28;20057;-88
2021/04/18 11:54:49;;;;;;;0.57;0.50;;;17.00;55.40;;;;;;5003855;28;20121;-88
2021/04/18 11:57:16;;;;;;;1.80;1.23;;;17.20;55.40;;;;;;5009184;28;20105;-88
2021/04/18 11:59:42;;;;;;;0.43;0.43;;;16.30;57.30;;;;;;5015011;28;20046;-88
2021/04/18 12:02:09;;;;;;;0.40;0.40;;;16.10;58.50;;;;;;5012857;28;20531;-88
2021/04/18 12:04:34;;;;;;;0.70;0.35;;;16.80;55.90;;;;;;5000937;28;20269;-88
2021/04/18 12:07:01;;;;;;;0.47;0.40;;;17.00;55.60;;;;;;5002018;28;20026;-88
2021/04/18 12:09:27;;;;;;;0.70;0.70;;;17.60;55.20;;;;;;5011842;28;20516;-86
2021/04/18 12:11:53;;;;;;;0.27;0.27;;;18.10;54.50;;;;;;5004846;28;20022;-88
2021/04/18 12:14:19;;;;;;;0.40;0.40;;;16.90;54.70;;;;;;5003729;28;20025;-88
2021/04/18 12:16:45;;;;;;;0.70;0.70;;;17.00;55.60;;;;;;5012838;28;20030;-88
2021/04/18 12:19:10;;;;;;;0.53;0.33;;;17.10;54.50;;;;;;5003589;28;20121;-88
2021/04/18 12:21:37;;;;;;;1.90;0.77;;;16.60;56.10;;;;;;5017162;28;20042;-88
2021/04/18 12:24:03;;;;;;;;;;;16.50;57.10;;;;;;5005720;28;20498;-89
2021/04/18 12:26:29;;;;;;;0.45;0.45;;;17.10;55.50;;;;;;5002817;28;19905;-88
2021/04/18 12:28:55;;;;;;;0.27;0.27;;;16.40;56.00;;;;;;5010740;28;20069;-88
2021/04/18 12:31:21;;;;;;;0.40;0.40;;;16.20;56.60;;;;;;5009210;28;20014;-88
2021/04/18 12:33:47;;;;;;;0.30;0.30;;;16.40;56.70;;;;;;5002425;28;20803;-88
2021/04/18 12:36:13;;;;;;;2.33;0.40;;;16.20;57.10;;;;;;5008020;28;20109;-88
2021/04/18 12:38:40;;;;;;;0.57;0.57;;;16.50;57.10;;;;;;5004424;28;20026;-88
2021/04/18 12:41:06;;;;;;;;;;;16.00;56.40;;;;;;5022837;28;20075;-89
2021/04/18 12:43:33;;;;;;;5.97;0.65;;;15.80;57.60;;;;;;5003230;28;20285;-89
2021/04/18 12:46:01;;;;;;;;;;;16.00;57.30;;;;;;5010852;28;20022;-89
2021/04/18 12:48:27;;;;;;;0.10;0.10;;;16.20;56.90;;;;;;4996270;28;19906;-88
2021/04/18 12:50:53;;;;;;;0.50;0.50;;;15.90;57.10;;;;;;5010832;28;20036;-88
2021/04/18 12:53:20;;;;;;;0.40;0.40;;;16.00;57.90;;;;;;5019536;28;20052;-88
2021/04/18 12:55:46;;;;;;;;;;;16.20;57.40;;;;;;5003459;28;20026;-88
2021/04/18 12:58:12;;;;;;;0.50;0.50;;;16.30;57.20;;;;;;5009548;28;19911;-88
2021/04/18 13:00:40;;;;;;;0.98;0.77;;;16.10;57.50;;;;;;5007307;28;20040;-88